FQCH

Chimoio Airport

Chimoio, Mozambique
METAR FQCH 211600Z 24008KT 9999 BKN008 BKN015 19/19 Q1017
Observed Flight Rules
Jan-21 @ 16:00 UTC (14 minutes ago) Instrument Flight Rules
Wind Visibility Clouds
240° at 8 knots 10,000+ meters
  • Broken at 800' AGL
  • Broken at 1,500' AGL
Temperatures Readings
Current 19°C / 66°F
Dewpoint 19°C / 66°F
Humidity 100%
Altimeter 30.03" Hg
Pressure 1016.92 hPa
Elevation 732
METAR FQCH 211600Z 24008KT 9999 BKN008 BKN015 19/19 Q1017
Observed Flight Rules
Jan-21 @ 16:00 UTC
(14 minutes ago)
IFR
Wind Visibility
240° at 8 knots 10,000+ meters
Clouds
  • Broken at 800' AGL
  • Broken at 1,500' AGL
Temperature Dewpoint
19°C / 66°F 19°C / 66°F
Humidity Altimeter Pressure
100% 30.03" Hg 1016.92 hPa